Time;durP1;ratioP1;P1;durP2;ratioP2;P2;SDS_P1;SDS_P2;PMS_P1;PMS_P2;Temp;Humidity;BMP_temperature;BMP_pressure;BME280_temperature;BME280_humidity;BME280_pressure;Samples;Min_cycle;Max_cycle;Signal;HPM_P1;HPM_P2
2021/05/16 00:01:10;;;;;;;3.10;1.42;;;;;;;;;;5037034;28;20358;-86
2021/05/16 00:03:37;;;;;;;1.85;1.40;;;;;;;;;;5036371;28;20486;-86
2021/05/16 00:06:03;;;;;;;1.60;1.40;;;;;;;;;;5037235;28;20025;-86
2021/05/16 00:08:29;;;;;;;2.10;1.25;;;;;;;;;;5034918;28;20021;-86
2021/05/16 00:10:55;;;;;;;2.13;1.50;;;;;;;;;;5028765;28;20029;-86
2021/05/16 00:13:21;;;;;;;2.50;1.30;;;;;;;;;;5023440;28;20039;-86
2021/05/16 00:15:48;;;;;;;2.35;1.50;;;;;;;;;;5036920;28;20053;-86
2021/05/16 00:18:14;;;;;;;1.70;1.30;;;;;;;;;;5054775;28;20029;-85
2021/05/16 00:20:40;;;;;;;1.60;1.30;;;;;;;;;;5054594;28;20029;-85
2021/05/16 00:23:06;;;;;;;2.25;1.48;;;;;;;;;;5033523;28;20469;-85
2021/05/16 00:25:33;;;;;;;2.28;1.38;;;;;;;;;;5027553;28;20037;-85
2021/05/16 00:27:59;;;;;;;2.28;1.08;;;;;;;;;;5062671;28;20040;-85
2021/05/16 00:30:26;;;;;;;1.50;1.20;;;;;;;;;;5073273;28;20024;-85
2021/05/16 00:32:53;;;;;;;1.55;1.10;;;;;;;;;;5057811;28;20427;-86
2021/05/16 00:35:21;;;;;;;3.03;1.15;;;;;;;;;;5056965;28;20461;-86
2021/05/16 00:37:48;;;;;;;1.40;1.20;;;;;;;;;;5053120;28;20116;-86
2021/05/16 00:40:15;;;;;;;1.77;1.30;;;;;;;;;;5066360;28;20072;-86
2021/05/16 00:42:41;;;;;;;2.25;1.60;;;;;;;;;;5065923;28;20050;-86
2021/05/16 00:45:09;;;;;;;2.45;1.80;;;;;;;;;;5057702;28;20120;-86
2021/05/16 00:47:36;;;;;;;3.65;1.55;;;;;;;;;;5059874;28;20025;-86
2021/05/16 00:50:03;;;;;;;4.35;1.50;;;;;;;;;;5072747;28;20016;-85
2021/05/16 00:52:29;;;;;;;2.45;1.48;;;;;;;;;;5062429;28;20587;-85
2021/05/16 00:54:55;;;;;;;2.88;1.50;;;;;;;;;;5066013;28;20107;-85
2021/05/16 00:57:22;;;;;;;1.65;1.13;;;;;;;;;;5069204;28;20055;-85
2021/05/16 00:59:48;;;;;;;3.78;1.40;;;;;;;;;;5072880;28;20025;-86
2021/05/16 01:02:14;;;;;;;1.58;1.30;;;;;;;;;;5056459;28;20106;-85
2021/05/16 01:04:40;;;;;;;2.17;1.52;;;;;;;;;;5055287;28;20103;-86
2021/05/16 01:07:06;;;;;;;2.05;1.30;;;;;;;;;;5061473;28;20023;-86
2021/05/16 01:09:32;;;;;;;1.58;1.15;;;;;;;;;;5070394;28;20388;-86
2021/05/16 01:12:01;;;;;;;6.88;1.60;;;;;;;;;;5065952;28;20350;-86
2021/05/16 01:14:36;;;;;;;1.73;1.27;;;;;;;;;;5067807;28;20024;-86
2021/05/16 01:17:02;;;;;;;1.63;1.40;;;;;;;;;;5057767;28;20068;-86
2021/05/16 01:19:32;;;;;;;1.45;1.23;;;;;;;;;;5071189;28;20116;-86
2021/05/16 01:21:58;;;;;;;1.60;1.30;;;;;;;;;;5071063;28;20036;-86
2021/05/16 01:24:26;;;;;;;2.55;1.92;;;;;;;;;;5071345;28;20033;-86
2021/05/16 01:26:52;;;;;;;2.67;1.40;;;;;;;;;;5057867;28;20067;-86
2021/05/16 01:29:19;;;;;;;1.65;1.40;;;;;;;;;;5058125;28;20041;-86
2021/05/16 01:31:45;;;;;;;3.95;1.50;;;;;;;;;;5057202;28;20104;-86
2021/05/16 01:34:11;;;;;;;1.95;1.70;;;;;;;;;;5060358;28;20064;-86
2021/05/16 01:36:38;;;;;;;2.95;1.55;;;;;;;;;;5052404;28;20411;-86
2021/05/16 01:39:06;;;;;;;1.95;1.60;;;;;;;;;;5066810;28;20025;-86
2021/05/16 01:41:32;;;;;;;1.55;1.23;;;;;;;;;;5055738;28;20025;-86
2021/05/16 01:43:58;;;;;;;1.60;1.25;;;;;;;;;;5057344;28;20151;-86
2021/05/16 01:46:24;;;;;;;1.40;1.27;;;;;;;;;;5064363;28;20066;-86
2021/05/16 01:48:50;;;;;;;1.35;0.93;;;;;;;;;;5058095;28;20162;-86
2021/05/16 01:51:17;;;;;;;1.63;0.93;;;;;;;;;;5071824;28;20697;-86
2021/05/16 01:53:43;;;;;;;4.95;1.50;;;;;;;;;;5053928;28;20029;-86
2021/05/16 01:56:09;;;;;;;1.85;1.35;;;;;;;;;;5062746;28;20487;-86
2021/05/16 01:58:36;;;;;;;3.75;1.48;;;;;;;;;;5064596;28;20020;-86
2021/05/16 02:01:02;;;;;;;2.53;1.15;;;;;;;;;;5065444;28;20040;-86
2021/05/16 02:03:29;;;;;;;3.28;1.10;;;;;;;;;;5057659;28;20028;-86
2021/05/16 02:05:55;;;;;;;1.85;1.20;;;;;;;;;;5064856;28;20464;-85
2021/05/16 02:08:21;;;;;;;2.53;1.30;;;;;;;;;;5067576;28;20033;-85
2021/05/16 02:10:47;;;;;;;1.60;1.25;;;;;;;;;;5055523;28;20029;-86
2021/05/16 02:13:13;;;;;;;1.80;1.20;;;;;;;;;;5051790;28;20035;-86
2021/05/16 02:15:39;;;;;;;3.20;1.20;;;;;;;;;;5063536;28;20025;-86
2021/05/16 02:18:08;;;;;;;1.45;1.30;;;;;;;;;;5054663;28;20516;-86
2021/05/16 02:20:34;;;;;;;2.53;1.73;;;;;;;;;;5051730;28;20476;-86
2021/05/16 02:23:00;;;;;;;1.70;1.27;;;;;;;;;;5065131;28;20044;-86
2021/05/16 02:25:26;;;;;;;1.33;1.10;;;;;;;;;;5055195;28;20480;-86
2021/05/16 02:27:52;;;;;;;1.30;1.15;;;;;;;;;;5052241;28;20112;-86
2021/05/16 02:30:19;;;;;;;1.55;1.15;;;;;;;;;;5063281;28;20047;-86
2021/05/16 02:32:46;;;;;;;1.50;1.38;;;;;;;;;;5062701;28;20020;-86
2021/05/16 02:35:13;;;;;;;2.20;1.27;;;;;;;;;;5058112;28;20029;-86
2021/05/16 02:37:40;;;;;;;3.28;0.98;;;;;;;;;;5061150;28;20418;-86
2021/05/16 02:40:06;;;;;;;1.33;1.10;;;;;;;;;;5061350;28;20029;-86
2021/05/16 02:42:32;;;;;;;2.03;1.70;;;;;;;;;;5069313;28;20016;-86
2021/05/16 02:44:58;;;;;;;2.47;1.52;;;;;;;;;;5056695;28;20368;-86
2021/05/16 02:47:24;;;;;;;2.00;1.40;;;;;;;;;;5051321;28;20043;-86
2021/05/16 02:49:50;;;;;;;2.83;1.80;;;;;;;;;;5066542;28;20036;-86
2021/05/16 02:52:16;;;;;;;2.38;1.83;;;;;;;;;;5068331;28;20021;-85
2021/05/16 02:54:43;;;;;;;1.77;1.48;;;;;;;;;;5080450;28;20098;-86
2021/05/16 02:57:09;;;;;;;1.67;1.17;;;;;;;;;;5063804;28;20017;-86
2021/05/16 02:59:35;;;;;;;2.20;1.50;;;;;;;;;;5071785;28;20092;-86
2021/05/16 03:02:01;;;;;;;3.90;1.45;;;;;;;;;;5057995;28;20012;-86
2021/05/16 03:04:28;;;;;;;2.70;1.70;;;;;;;;;;5070333;28;20050;-86
2021/05/16 03:06:54;;;;;;;2.47;1.65;;;;;;;;;;5065294;28;20032;-86
2021/05/16 03:09:20;;;;;;;8.48;3.67;;;;;;;;;;5055679;28;20419;-86
2021/05/16 03:11:46;;;;;;;4.25;2.25;;;;;;;;;;5057735;28;20017;-86
2021/05/16 03:14:12;;;;;;;3.38;2.10;;;;;;;;;;5057584;28;20035;-86
2021/05/16 03:16:38;;;;;;;2.22;1.90;;;;;;;;;;5058057;28;20028;-86
2021/05/16 03:19:04;;;;;;;2.72;1.75;;;;;;;;;;5056945;28;20029;-86
2021/05/16 03:21:30;;;;;;;3.28;1.75;;;;;;;;;;5058617;28;20024;-86
2021/05/16 03:23:56;;;;;;;1.98;1.52;;;;;;;;;;5070831;28;20032;-86
2021/05/16 03:26:24;;;;;;;1.85;1.60;;;;;;;;;;5063972;28;20542;-86
2021/05/16 03:28:50;;;;;;;2.20;1.73;;;;;;;;;;5070283;28;20070;-86
2021/05/16 03:31:16;;;;;;;3.97;1.85;;;;;;;;;;5067450;28;20071;-85
2021/05/16 03:33:42;;;;;;;1.70;1.60;;;;;;;;;;5068259;28;20040;-86
2021/05/16 03:36:08;;;;;;;2.30;1.40;;;;;;;;;;5054757;28;20102;-86
2021/05/16 03:38:34;;;;;;;1.92;1.40;;;;;;;;;;5055306;28;20036;-86
2021/05/16 03:41:00;;;;;;;1.40;1.30;;;;;;;;;;5068265;28;20064;-86
2021/05/16 03:43:27;;;;;;;2.25;1.63;;;;;;;;;;5068383;28;20122;-86
2021/05/16 03:45:53;;;;;;;1.45;1.10;;;;;;;;;;5060193;28;20082;-86
2021/05/16 03:48:19;;;;;;;3.05;1.67;;;;;;;;;;5075792;28;20039;-86
2021/05/16 03:50:45;;;;;;;1.60;1.33;;;;;;;;;;5075393;28;20032;-86
2021/05/16 03:53:11;;;;;;;2.20;1.60;;;;;;;;;;5059020;28;20427;-86
2021/05/16 03:55:37;;;;;;;1.85;1.42;;;;;;;;;;5063860;28;20411;-86
2021/05/16 03:58:03;;;;;;;2.15;1.27;;;;;;;;;;5060870;28;20128;-86
2021/05/16 04:00:29;;;;;;;2.00;1.50;;;;;;;;;;5062961;28;20032;-86
2021/05/16 04:02:55;;;;;;;2.45;1.92;;;;;;;;;;5068338;28;20056;-86
2021/05/16 04:05:21;;;;;;;3.28;1.58;;;;;;;;;;5065648;28;20053;-86
2021/05/16 04:07:49;;;;;;;2.70;2.10;;;;;;;;;;5058661;28;20037;-86
2021/05/16 04:10:15;;;;;;;3.47;2.25;;;;;;;;;;5074027;28;20414;-86
2021/05/16 04:12:41;;;;;;;2.55;2.03;;;;;;;;;;5073864;28;20024;-86
2021/05/16 04:15:08;;;;;;;3.60;1.88;;;;;;;;;;5060095;28;20418;-86
2021/05/16 04:17:34;;;;;;;1.90;1.60;;;;;;;;;;5068177;28;20082;-86
2021/05/16 04:20:00;;;;;;;6.28;2.35;;;;;;;;;;5064312;28;20514;-86
2021/05/16 04:22:26;;;;;;;3.08;1.63;;;;;;;;;;5059814;28;20032;-86
2021/05/16 04:24:52;;;;;;;1.98;1.50;;;;;;;;;;5057794;28;20025;-86
2021/05/16 04:27:19;;;;;;;2.28;1.65;;;;;;;;;;5037734;28;20037;-86
2021/05/16 04:29:45;;;;;;;3.22;1.95;;;;;;;;;;5027522;28;20021;-86
2021/05/16 04:32:11;;;;;;;2.67;1.90;;;;;;;;;;5055607;28;20017;-87
2021/05/16 04:34:37;;;;;;;3.25;1.45;;;;;;;;;;5043271;28;20029;-86
2021/05/16 04:37:03;;;;;;;4.00;1.80;;;;;;;;;;5039702;28;20026;-85
2021/05/16 04:39:29;;;;;;;2.50;1.70;;;;;;;;;;5076089;28;20032;-87
2021/05/16 04:41:55;;;;;;;1.90;1.55;;;;;;;;;;5056376;28;20037;-86
2021/05/16 04:44:21;;;;;;;4.22;1.60;;;;;;;;;;5055893;28;20372;-86
2021/05/16 04:46:47;;;;;;;2.80;1.80;;;;;;;;;;5049451;28;20021;-86
2021/05/16 04:49:14;;;;;;;4.03;1.60;;;;;;;;;;5046192;28;20017;-86
2021/05/16 04:51:40;;;;;;;2.30;1.70;;;;;;;;;;5037297;28;20069;-86
2021/05/16 04:54:06;;;;;;;3.97;1.85;;;;;;;;;;5049681;28;20025;-86
2021/05/16 04:56:32;;;;;;;2.97;1.50;;;;;;;;;;5047249;28;20033;-86
2021/05/16 04:58:58;;;;;;;2.65;1.60;;;;;;;;;;5056431;28;20056;-86
2021/05/16 05:01:25;;;;;;;4.85;2.10;;;;;;;;;;5034641;28;20049;-86
2021/05/16 05:03:51;;;;;;;4.18;1.63;;;;;;;;;;5043671;28;20025;-86
2021/05/16 05:06:17;;;;;;;2.65;1.85;;;;;;;;;;5073952;28;20013;-86
2021/05/16 05:08:44;;;;;;;2.10;1.60;;;;;;;;;;5043467;28;20100;-85
2021/05/16 05:11:10;;;;;;;2.58;1.90;;;;;;;;;;5071949;28;20037;-86
2021/05/16 05:13:37;;;;;;;2.58;1.80;;;;;;;;;;5051407;28;20020;-85
2021/05/16 05:16:03;;;;;;;4.05;1.48;;;;;;;;;;5042663;28;20024;-85
2021/05/16 05:18:29;;;;;;;4.63;1.48;;;;;;;;;;5047889;28;20025;-85
2021/05/16 05:20:55;;;;;;;2.75;1.70;;;;;;;;;;5037723;28;20035;-86
2021/05/16 05:23:21;;;;;;;3.25;1.42;;;;;;;;;;5035703;28;20040;-86
2021/05/16 05:25:47;;;;;;;1.75;1.35;;;;;;;;;;5052159;28;20024;-86
2021/05/16 05:28:16;;;;;;;4.03;1.60;;;;;;;;;;5089744;28;20024;-86
2021/05/16 05:30:42;;;;;;;2.55;1.63;;;;;;;;;;5094072;28;20053;-86
2021/05/16 05:33:08;;;;;;;1.77;1.40;;;;;;;;;;5083866;28;20048;-85
2021/05/16 05:35:34;;;;;;;2.45;1.42;;;;;;;;;;5089514;28;20028;-85
2021/05/16 05:38:00;;;;;;;2.72;1.70;;;;;;;;;;5084880;28;20025;-85
2021/05/16 05:40:26;;;;;;;3.75;1.50;;;;;;;;;;5073219;28;20012;-85
2021/05/16 05:42:52;;;;;;;7.20;1.52;;;;;;;;;;5078967;28;20052;-85
2021/05/16 05:45:18;;;;;;;2.85;1.58;;;;;;;;;;5076918;28;20528;-86
2021/05/16 05:47:44;;;;;;;1.73;1.20;;;;;;;;;;5079810;28;20040;-86
2021/05/16 05:50:11;;;;;;;1.60;1.20;;;;;;;;;;5071782;28;20040;-86
2021/05/16 05:52:37;;;;;;;1.75;1.25;;;;;;;;;;5060550;28;20053;-86
2021/05/16 05:55:03;;;;;;;2.17;1.35;;;;;;;;;;5069214;28;20062;-86
2021/05/16 05:57:29;;;;;;;2.15;1.17;;;;;;;;;;5070023;28;20408;-84
2021/05/16 05:59:55;;;;;;;1.60;1.17;;;;;;;;;;5071410;28;20051;-84
2021/05/16 06:02:21;;;;;;;1.65;1.05;;;;;;;;;;5061926;28;20128;-86
2021/05/16 06:04:47;;;;;;;2.20;1.08;;;;;;;;;;5054925;28;20476;-86
2021/05/16 06:07:13;;;;;;;1.20;1.10;;;;;;;;;;5071218;28;20059;-86
2021/05/16 06:09:39;;;;;;;1.50;1.10;;;;;;;;;;5056575;28;20115;-86
2021/05/16 06:12:06;;;;;;;2.47;1.60;;;;;;;;;;5064636;28;20017;-86
2021/05/16 06:14:33;;;;;;;1.88;1.15;;;;;;;;;;5069108;28;20416;-86
2021/05/16 06:16:59;;;;;;;1.30;1.20;;;;;;;;;;5068449;28;20024;-86
2021/05/16 06:19:25;;;;;;;2.85;1.33;;;;;;;;;;5064066;28;20116;-86
2021/05/16 06:21:51;;;;;;;4.82;1.35;;;;;;;;;;5057542;28;20113;-86
2021/05/16 06:24:17;;;;;;;2.38;1.20;;;;;;;;;;5064251;28;20029;-86
2021/05/16 06:26:45;;;;;;;1.48;0.85;;;;;;;;;;5050888;28;20080;-86
2021/05/16 06:29:12;;;;;;;1.33;0.95;;;;;;;;;;5017362;28;20029;-86
2021/05/16 06:31:38;;;;;;;1.83;0.77;;;;;;;;;;5027674;28;20029;-86
2021/05/16 06:34:04;;;;;;;1.13;0.90;;;;;;;;;;5039516;28;20028;-86
2021/05/16 06:36:30;;;;;;;0.93;0.82;;;;;;;;;;5028897;28;20021;-86
2021/05/16 06:38:57;;;;;;;2.47;1.23;;;;;;;;;;5019135;28;20083;-86
2021/05/16 06:41:23;;;;;;;1.70;0.93;;;;;;;;;;5023443;28;20024;-86
2021/05/16 06:43:49;;;;;;;2.10;1.40;;;;;;;;;;5023763;28;20013;-86
2021/05/16 06:46:15;;;;;;;1.17;0.90;;;;;;;;;;5017709;28;20040;-86
2021/05/16 06:48:41;;;;;;;2.30;1.27;;;;;;;;;;5024587;28;20029;-86
2021/05/16 06:51:09;;;;;;;4.70;1.10;;;;;;;;;;5026952;28;20033;-87
2021/05/16 06:53:35;;;;;;;1.30;1.02;;;;;;;;;;5028877;28;20482;-87
2021/05/16 06:56:01;;;;;;;2.70;1.35;;;;;;;;;;5027823;28;20064;-87
2021/05/16 06:58:27;;;;;;;1.77;0.95;;;;;;;;;;5037374;28;20469;-86
2021/05/16 07:00:53;;;;;;;4.10;1.10;;;;;;;;;;5024006;28;20574;-87
2021/05/16 07:03:19;;;;;;;2.05;1.08;;;;;;;;;;5025102;28;20032;-84
2021/05/16 07:05:47;;;;;;;2.25;1.33;;;;;;;;;;5021999;28;20039;-87
2021/05/16 07:08:13;;;;;;;1.42;1.13;;;;;;;;;;5026710;28;20412;-85
2021/05/16 07:10:39;;;;;;;1.52;1.02;;;;;;;;;;5052997;28;20056;-86
2021/05/16 07:13:05;;;;;;;2.25;0.88;;;;;;;;;;5036208;28;20025;-86
2021/05/16 07:15:31;;;;;;;1.30;0.85;;;;;;;;;;5027368;28;20091;-86
2021/05/16 07:17:57;;;;;;;2.53;0.93;;;;;;;;;;5016859;28;20018;-87
2021/05/16 07:20:23;;;;;;;2.08;0.82;;;;;;;;;;5047146;28;20037;-86
2021/05/16 07:22:50;;;;;;;1.90;1.00;;;;;;;;;;5028089;28;20029;-87
2021/05/16 07:25:17;;;;;;;2.17;0.90;;;;;;;;;;5045824;28;20073;-86
2021/05/16 07:27:43;;;;;;;1.85;1.05;;;;;;;;;;5025504;28;20032;-86
2021/05/16 07:30:10;;;;;;;1.83;0.80;;;;;;;;;;5016962;28;20045;-87
2021/05/16 07:32:36;;;;;;;1.50;1.05;;;;;;;;;;5024081;28;20025;-86
2021/05/16 07:35:02;;;;;;;1.75;1.02;;;;;;;;;;5046266;28;20522;-86
2021/05/16 07:37:27;;;;;;;1.23;1.00;;;;;;;;;;5027617;28;20025;-85
2021/05/16 07:39:54;;;;;;;2.20;1.10;;;;;;;;;;5015972;28;20401;-88
2021/05/16 07:42:20;;;;;;;1.50;0.63;;;;;;;;;;5017630;28;20088;-86
2021/05/16 07:44:46;;;;;;;2.78;1.15;;;;;;;;;;5026839;28;20721;-86
2021/05/16 07:47:12;;;;;;;0.80;0.70;;;;;;;;;;5029978;28;20071;-86
2021/05/16 07:49:38;;;;;;;2.65;0.90;;;;;;;;;;5047999;28;20481;-87
2021/05/16 07:52:04;;;;;;;1.42;1.17;;;;;;;;;;5019384;28;20040;-86
2021/05/16 07:54:30;;;;;;;6.88;0.80;;;;;;;;;;5022235;28;20217;-86
2021/05/16 07:56:58;;;;;;;1.30;0.90;;;;;;;;;;5027939;28;20052;-86
2021/05/16 07:59:24;;;;;;;1.60;0.77;;;;;;;;;;5019977;28;20034;-86
2021/05/16 08:01:50;;;;;;;9.57;0.98;;;;;;;;;;5029624;28;20029;-86
2021/05/16 08:04:16;;;;;;;1.60;0.70;;;;;;;;;;5020570;28;20040;-86
2021/05/16 08:06:42;;;;;;;2.30;0.90;;;;;;;;;;5022779;28;20038;-86
2021/05/16 08:09:08;;;;;;;3.08;0.88;;;;;;;;;;5044969;28;20075;-88
2021/05/16 08:11:34;;;;;;;1.42;0.80;;;;;;;;;;5027026;28;20029;-86
2021/05/16 08:14:00;;;;;;;2.67;1.00;;;;;;;;;;5053107;28;20021;-86
2021/05/16 08:16:27;;;;;;;1.33;0.80;;;;;;;;;;5047471;28;20018;-86
2021/05/16 08:18:53;;;;;;;2.60;0.98;;;;;;;;;;5031577;28;20024;-87
2021/05/16 08:21:19;;;;;;;1.02;0.60;;;;;;;;;;5027144;28;20064;-86
2021/05/16 08:23:45;;;;;;;3.03;1.10;;;;;;;;;;5052778;28;20028;-86
2021/05/16 08:26:11;;;;;;;0.60;0.60;;;;;;;;;;5044675;28;20492;-88
2021/05/16 08:28:37;;;;;;;1.00;0.73;;;;;;;;;;5030047;28;20057;-87
2021/05/16 08:31:04;;;;;;;2.08;0.90;;;;;;;;;;5023018;28;20469;-86
2021/05/16 08:33:30;;;;;;;5.40;1.00;;;;;;;;;;5031839;28;20441;-89
2021/05/16 08:35:56;;;;;;;2.03;1.25;;;;;;;;;;5027537;28;20038;-86
2021/05/16 08:38:22;;;;;;;1.67;0.80;;;;;;;;;;5024143;28;20037;-86
2021/05/16 08:40:48;;;;;;;1.75;0.77;;;;;;;;;;5029930;28;20039;-87
2021/05/16 08:43:14;;;;;;;0.88;0.73;;;;;;;;;;5023619;28;20087;-87
2021/05/16 08:45:42;;;;;;;2.58;0.90;;;;;;;;;;5028215;28;20057;-87
2021/05/16 08:48:08;;;;;;;2.60;0.85;;;;;;;;;;5047066;28;20087;-87
2021/05/16 08:50:34;;;;;;;1.50;0.80;;;;;;;;;;5031379;28;20037;-87
2021/05/16 08:53:00;;;;;;;1.20;0.80;;;;;;;;;;5040523;28;20022;-87
2021/05/16 08:55:27;;;;;;;2.28;1.10;;;;;;;;;;5046710;28;20032;-86
2021/05/16 08:57:53;;;;;;;4.30;0.77;;;;;;;;;;5036018;28;20354;-86
2021/05/16 09:00:20;;;;;;;1.92;1.05;;;;;;;;;;5035804;28;20067;-87
2021/05/16 09:02:58;;;;;;;5.45;1.20;;;;;;;;;;5022332;28;20040;-87
2021/05/16 09:05:26;;;;;;;3.35;1.05;;;;;;;;;;5028669;28;20064;-86
2021/05/16 09:07:59;;;;;;;5.68;1.25;;;;;;;;;;5027420;28;20037;-88
2021/05/16 09:10:25;;;;;;;3.50;1.30;;;;;;;;;;5035797;28;20040;-88
2021/05/16 09:12:51;;;;;;;4.80;1.15;;;;;;;;;;5034568;28;20037;-88
2021/05/16 09:15:21;;;;;;;5.60;1.00;;;;;;;;;;5029016;28;20053;-88
2021/05/16 09:17:52;;;;;;;1.25;0.85;;;;;;;;;;5018371;28;20021;-86
2021/05/16 09:20:24;;;;;;;3.20;1.25;;;;;;;;;;5048865;28;20090;-87
2021/05/16 09:22:51;;;;;;;2.22;0.95;;;;;;;;;;5038913;28;20048;-87
2021/05/16 09:25:17;;;;;;;5.82;1.23;;;;;;;;;;5029341;28;20036;-88
2021/05/16 09:27:48;;;;;;;6.47;1.00;;;;;;;;;;5031773;28;20044;-87
2021/05/16 09:30:17;;;;;;;3.13;1.23;;;;;;;;;;5042717;28;20041;-86
2021/05/16 09:32:47;;;;;;;2.97;0.95;;;;;;;;;;5026914;28;20022;-86
2021/05/16 09:35:13;;;;;;;4.57;1.10;;;;;;;;;;5035169;28;20026;-86
2021/05/16 09:37:54;;;;;;;5.97;1.15;;;;;;;;;;5016231;28;20469;-87
2021/05/16 09:40:24;;;;;;;7.20;1.17;;;;;;;;;;5028219;28;20472;-87
2021/05/16 09:43:05;;;;;;;4.55;1.23;;;;;;;;;;5052895;28;20116;-87
2021/05/16 09:46:05;;;;;;;6.63;1.20;;;;;;;;;;5019139;28;20029;-87
2021/05/16 09:48:38;;;;;;;6.63;1.52;;;;;;;;;;4999886;28;20129;-88
2021/05/16 09:51:23;;;;;;;8.93;1.92;;;;;;;;;;5016828;28;20416;-90
2021/05/16 09:53:59;;;;;;;6.57;1.90;;;;;;;;;;5023759;28;20420;-89
2021/05/16 09:56:26;;;;;;;8.10;2.03;;;;;;;;;;5026040;28;20033;-90
2021/05/16 09:58:53;;;;;;;8.43;2.13;;;;;;;;;;5027796;28;20360;-89
2021/05/16 10:01:21;;;;;;;10.52;1.75;;;;;;;;;;5031511;28;20063;-90
2021/05/16 10:03:48;;;;;;;5.13;1.80;;;;;;;;;;5030993;28;20029;-90
2021/05/16 10:06:14;;;;;;;6.72;1.90;;;;;;;;;;5023555;28;20029;-88
2021/05/16 10:08:43;;;;;;;7.18;2.00;;;;;;;;;;5029077;28;20132;-90
2021/05/16 10:11:09;;;;;;;7.20;1.70;;;;;;;;;;5023663;28;20072;-90
2021/05/16 10:13:37;;;;;;;7.57;2.50;;;;;;;;;;5021312;28;20522;-90
2021/05/16 10:16:03;;;;;;;7.32;1.95;;;;;;;;;;5030316;28;20408;-89
2021/05/16 10:18:31;;;;;;;5.50;1.75;;;;;;;;;;5020745;28;20108;-89
2021/05/16 10:20:57;;;;;;;6.60;2.63;;;;;;;;;;5022906;28;20048;-89
2021/05/16 10:23:30;;;;;;;6.38;1.77;;;;;;;;;;5017832;28;20580;-89
2021/05/16 10:25:56;;;;;;;7.40;1.73;;;;;;;;;;5033578;28;20538;-89
2021/05/16 10:28:42;;;;;;;6.97;1.77;;;;;;;;;;5063043;28;20071;-89
2021/05/16 10:31:10;;;;;;;11.52;1.40;;;;;;;;;;5056655;28;20036;-89
2021/05/16 10:33:38;;;;;;;3.92;1.45;;;;;;;;;;5066832;28;20024;-89
2021/05/16 10:36:04;;;;;;;4.50;1.30;;;;;;;;;;5052553;28;20048;-90
2021/05/16 10:38:34;;;;;;;7.38;1.80;;;;;;;;;;5061112;28;20033;-90
2021/05/16 10:41:14;;;;;;;4.45;1.20;;;;;;;;;;5061751;28;20074;-89
2021/05/16 10:43:40;;;;;;;7.68;1.65;;;;;;;;;;5059783;28;20079;-90
2021/05/16 10:46:26;;;;;;;8.13;1.40;;;;;;;;;;5068907;28;20461;-90
2021/05/16 10:48:52;;;;;;;3.92;1.38;;;;;;;;;;5060358;28;20111;-90
2021/05/16 10:51:27;;;;;;;6.28;1.85;;;;;;;;;;5061459;28;20029;-89
2021/05/16 10:53:54;;;;;;;5.60;1.80;;;;;;;;;;5062860;28;20038;-89
2021/05/16 10:56:21;;;;;;;3.72;1.30;;;;;;;;;;5059614;28;20028;-89
2021/05/16 10:58:52;;;;;;;3.67;1.38;;;;;;;;;;5064490;28;20036;-89
2021/05/16 11:01:18;;;;;;;3.85;1.30;;;;;;;;;;5058565;28;20516;-89
2021/05/16 11:03:53;;;;;;;4.65;1.27;;;;;;;;;;5062217;28;20028;-89
2021/05/16 11:06:23;;;;;;;4.47;1.15;;;;;;;;;;5057206;28;20032;-90
2021/05/16 11:08:49;;;;;;;7.40;1.02;;;;;;;;;;5053723;28;20385;-89
2021/05/16 11:11:34;;;;;;;7.43;1.58;;;;;;;;;;5059533;28;20020;-90
2021/05/16 11:13:59;;;;;;;2.95;1.50;;;;;;;;;;5065132;28;20035;-89
2021/05/16 11:16:26;;;;;;;4.43;1.27;;;;;;;;;;5061316;28;20029;-89
2021/05/16 11:18:52;;;;;;;4.50;1.55;;;;;;;;;;5060359;28;20107;-89
2021/05/16 11:21:18;;;;;;;5.63;1.48;;;;;;;;;;5053280;28;20029;-88
2021/05/16 11:23:47;;;;;;;7.00;2.00;;;;;;;;;;5068065;28;20066;-89
2021/05/16 11:26:14;;;;;;;6.07;1.40;;;;;;;;;;5051203;28;20091;-88
2021/05/16 11:28:49;;;;;;;3.15;1.33;;;;;;;;;;5026116;28;20049;-89
2021/05/16 11:31:20;;;;;;;6.07;1.10;;;;;;;;;;5036901;28;20036;-89
2021/05/16 11:33:50;;;;;;;6.72;1.75;;;;;;;;;;5018316;28;20022;-89
2021/05/16 11:36:18;;;;;;;3.60;1.00;;;;;;;;;;5039635;28;20154;-89
2021/05/16 11:38:48;;;;;;;6.40;1.17;;;;;;;;;;5024389;28;20079;-88
2021/05/16 11:41:27;;;;;;;4.47;0.82;;;;;;;;;;5042252;28;20043;-89
2021/05/16 11:43:53;;;;;;;2.75;0.80;;;;;;;;;;5028424;28;20048;-87
2021/05/16 11:46:26;;;;;;;4.47;0.70;;;;;;;;;;5022887;28;20044;-87
2021/05/16 11:48:52;;;;;;;2.17;0.55;;;;;;;;;;5032897;28;20532;-88
2021/05/16 11:51:18;;;;;;;3.08;0.60;;;;;;;;;;5031808;28;20041;-87
2021/05/16 11:53:49;;;;;;;2.72;0.40;;;;;;;;;;5021279;28;20083;-88
2021/05/16 11:56:17;;;;;;;1.30;0.45;;;;;;;;;;5043311;28;20383;-89
2021/05/16 11:58:47;;;;;;;4.00;0.35;;;;;;;;;;5025579;28;20018;-87
2021/05/16 12:01:13;;;;;;;2.05;0.65;;;;;;;;;;5037077;28;20055;-87
2021/05/16 12:03:52;;;;;;;0.85;0.30;;;;;;;;;;5037481;28;20027;-88
2021/05/16 12:06:18;;;;;;;2.10;0.68;;;;;;;;;;5044972;28;20535;-87
2021/05/16 12:08:44;;;;;;;2.92;0.40;;;;;;;;;;5029974;28;20052;-87
2021/05/16 12:11:15;;;;;;;4.63;0.60;;;;;;;;;;5036411;28;20033;-87
2021/05/16 12:13:41;;;;;;;1.83;0.60;;;;;;;;;;5029852;28;20473;-88
2021/05/16 12:16:14;;;;;;;1.48;0.60;;;;;;;;;;5035273;28;20013;-88
2021/05/16 12:18:40;;;;;;;;;;;;;;;;;;5046743;28;20017;-87
2021/05/16 12:21:07;;;;;;;3.65;0.50;;;;;;;;;;5032926;28;19967;-88
2021/05/16 12:23:33;;;;;;;2.92;0.73;;;;;;;;;;5024644;28;20075;-88
2021/05/16 12:25:59;;;;;;;1.80;0.60;;;;;;;;;;5039096;28;20044;-88
2021/05/16 12:28:25;;;;;;;1.88;0.70;;;;;;;;;;5062765;28;20066;-89
2021/05/16 12:30:52;;;;;;;1.85;0.30;;;;;;;;;;5068085;28;20029;-89
2021/05/16 12:33:18;;;;;;;2.40;0.57;;;;;;;;;;5056474;28;20033;-88
2021/05/16 12:35:48;;;;;;;2.10;0.50;;;;;;;;;;5058991;28;20107;-88
2021/05/16 12:38:14;;;;;;;3.17;0.77;;;;;;;;;;5073978;28;20426;-89
2021/05/16 12:40:41;;;;;;;4.15;0.60;;;;;;;;;;5075578;28;20124;-89
2021/05/16 12:43:09;;;;;;;1.77;0.43;;;;;;;;;;5074519;28;20071;-88
2021/05/16 12:45:35;;;;;;;2.15;0.70;;;;;;;;;;5068099;28;20036;-92
2021/05/16 12:48:10;;;;;;;2.95;0.60;;;;;;;;;;5073321;28;20025;-89
2021/05/16 12:50:41;;;;;;;1.60;0.32;;;;;;;;;;5070909;28;20506;-89
2021/05/16 12:53:26;;;;;;;3.83;0.70;;;;;;;;;;5067041;28;20016;-89
2021/05/16 12:56:11;;;;;;;3.53;1.05;;;;;;;;;;5066513;28;20019;-91
2021/05/16 12:59:21;;;;;;;3.15;0.30;;;;;;;;;;5055397;28;20481;-89
2021/05/16 13:01:27;;;;;;;1.70;0.40;;;;;;;;;;5058236;28;20119;-90
2021/05/16 13:03:54;;;;;;;0.80;0.30;;;;;;;;;;5061602;28;20035;-88
2021/05/16 13:06:21;;;;;;;2.72;0.40;;;;;;;;;;5065186;28;20035;-87
2021/05/16 13:08:52;;;;;;;3.58;0.60;;;;;;;;;;5070746;28;20024;-88
2021/05/16 13:11:19;;;;;;;1.80;0.52;;;;;;;;;;5074846;28;20119;-88
2021/05/16 13:13:46;;;;;;;3.60;0.43;;;;;;;;;;5073729;28;20361;-87
2021/05/16 13:16:16;;;;;;;2.05;0.40;;;;;;;;;;5071481;28;20029;-87
2021/05/16 13:18:42;;;;;;;1.70;0.40;;;;;;;;;;5067830;28;20059;-85
2021/05/16 13:21:18;;;;;;;2.83;0.57;;;;;;;;;;5072409;28;20480;-85
2021/05/16 13:23:44;;;;;;;1.17;0.32;;;;;;;;;;5064188;28;20063;-85
2021/05/16 13:26:10;;;;;;;4.72;0.60;;;;;;;;;;5060184;28;20123;-85
2021/05/16 13:28:37;;;;;;;1.73;0.40;;;;;;;;;;5072932;28;20029;-85
2021/05/16 13:31:03;;;;;;;2.53;0.70;;;;;;;;;;5053646;28;20075;-85
2021/05/16 13:33:30;;;;;;;3.13;0.85;;;;;;;;;;5070204;28;20066;-85
2021/05/16 13:35:56;;;;;;;5.65;0.70;;;;;;;;;;5064429;28;20147;-84
2021/05/16 13:38:22;;;;;;;4.00;0.70;;;;;;;;;;5069023;28;20108;-84
2021/05/16 13:40:48;;;;;;;0.68;0.30;;;;;;;;;;5073119;28;20052;-84
2021/05/16 13:43:16;;;;;;;2.33;0.90;;;;;;;;;;5073926;28;20059;-84
2021/05/16 13:45:42;;;;;;;1.70;0.70;;;;;;;;;;5068865;28;20017;-84
2021/05/16 13:48:08;;;;;;;2.35;0.50;;;;;;;;;;5079107;28;20029;-85
2021/05/16 13:50:34;;;;;;;2.65;0.60;;;;;;;;;;5068151;28;20066;-85
2021/05/16 13:53:00;;;;;;;3.42;0.55;;;;;;;;;;5055805;28;20021;-84
2021/05/16 13:55:26;;;;;;;2.67;0.50;;;;;;;;;;5063223;28;20036;-84
2021/05/16 13:57:52;;;;;;;2.88;0.80;;;;;;;;;;5061205;28;20013;-84
2021/05/16 14:00:18;;;;;;;2.78;0.68;;;;;;;;;;5074311;28;20028;-84
2021/05/16 14:02:44;;;;;;;5.57;0.77;;;;;;;;;;5061657;28;20111;-84
2021/05/16 14:05:10;;;;;;;0.85;0.30;;;;;;;;;;5055877;28;20060;-85
2021/05/16 14:07:36;;;;;;;3.13;0.65;;;;;;;;;;5062947;28;20025;-85
2021/05/16 14:10:02;;;;;;;8.05;0.77;;;;;;;;;;5063397;28;20025;-85
2021/05/16 14:12:28;;;;;;;5.70;1.20;;;;;;;;;;5063017;28;20023;-85
2021/05/16 14:14:54;;;;;;;4.00;0.65;;;;;;;;;;5069062;28;20025;-85
2021/05/16 14:17:20;;;;;;;2.20;0.63;;;;;;;;;;5059918;28;20025;-86
2021/05/16 14:19:46;;;;;;;2.53;0.47;;;;;;;;;;5060586;28;20506;-84
2021/05/16 14:22:12;;;;;;;1.67;0.55;;;;;;;;;;5069651;28;20016;-86
2021/05/16 14:24:39;;;;;;;3.05;0.60;;;;;;;;;;5060337;28;20021;-86
2021/05/16 14:27:05;;;;;;;2.63;0.80;;;;;;;;;;5067431;28;20040;-85
2021/05/16 14:29:31;;;;;;;2.40;0.63;;;;;;;;;;5052950;28;20548;-85
2021/05/16 14:31:57;;;;;;;3.65;0.70;;;;;;;;;;5055387;28;20087;-86
2021/05/16 14:34:23;;;;;;;2.67;0.70;;;;;;;;;;5067311;28;20049;-86
2021/05/16 14:36:49;;;;;;;2.67;0.55;;;;;;;;;;5062194;28;20024;-86
2021/05/16 14:39:16;;;;;;;3.17;0.75;;;;;;;;;;5063950;28;20447;-85
2021/05/16 14:41:42;;;;;;;3.42;0.70;;;;;;;;;;5057673;28;20437;-85
2021/05/16 14:44:08;;;;;;;4.00;0.82;;;;;;;;;;5057158;28;20017;-85